createdAt,value
2023-04-07T00:06:50.853Z,4.50
2023-04-07T00:10:23.575Z,4.70
2023-04-07T00:13:54.936Z,5.20
2023-04-07T00:17:25.167Z,4.60
2023-04-07T00:20:56.492Z,4.50
2023-04-07T00:24:34.660Z,5.60
2023-04-07T00:42:57.778Z,7.90
2023-04-07T00:46:33.326Z,7.90
2023-04-07T00:50:06.142Z,5.40
2023-04-07T00:53:35.643Z,5.70
2023-04-07T01:12:24.591Z,9.20
2023-04-07T01:15:55.273Z,9.50
2023-04-07T01:24:00.545Z,8.00
2023-04-07T01:34:58.382Z,6.40
2023-04-07T01:38:38.951Z,5.40
2023-04-07T01:42:14.934Z,5.70
2023-04-07T01:45:45.205Z,5.20
2023-04-07T01:49:26.485Z,5.50
2023-04-07T01:53:15.210Z,6.30
2023-04-07T02:00:53.282Z,5.20
2023-04-07T02:12:56.983Z,5.60
2023-04-07T02:20:16.682Z,5.60
2023-04-07T02:23:48.548Z,5.90
2023-04-07T02:28:01.523Z,6.90
2023-04-07T02:30:47.215Z,6.10
2023-04-07T02:34:21.233Z,6.40
2023-04-07T02:37:53.154Z,6.20
2023-04-07T02:41:25.906Z,7.50
2023-04-07T02:45:04.026Z,7.30
2023-04-07T02:48:34.039Z,6.60
2023-04-07T02:52:12.646Z,7.90
2023-04-07T03:04:03.610Z,6.80
2023-04-07T03:31:49.814Z,6.90
2023-04-07T03:35:20.570Z,7.70
2023-04-07T03:39:03.934Z,8.60
2023-04-07T03:42:33.728Z,6.90
2023-04-07T04:01:07.293Z,10.60
2023-04-07T04:04:56.175Z,9.60
2023-04-07T04:16:42.217Z,11.60
2023-04-07T04:20:11.861Z,12.30
2023-04-07T04:24:19.141Z,11.20
2023-04-07T04:32:31.557Z,10.80
2023-04-07T04:36:01.773Z,10.20
2023-04-07T04:39:09.518Z,9.50
2023-04-07T04:43:12.586Z,10.60
2023-04-07T04:46:50.566Z,12.10
2023-04-07T04:50:31.554Z,11.30
2023-04-07T04:54:02.217Z,11.70
2023-04-07T04:57:07.822Z,11.90
2023-04-07T05:00:39.376Z,11.80
2023-04-07T05:04:07.317Z,11.50
2023-04-07T05:07:53.220Z,12.40
2023-04-07T05:11:32.976Z,12.90
2023-04-07T05:19:19.726Z,12.30
2023-04-07T05:23:05.270Z,12.20
2023-04-07T05:26:40.519Z,13.50
2023-04-07T05:30:11.919Z,8.50
2023-04-07T05:36:55.643Z,10.70
2023-04-07T05:40:50.280Z,11.90
2023-04-07T05:44:04.373Z,11.00
2023-04-07T05:47:22.604Z,10.00
2023-04-07T05:50:40.786Z,10.00
2023-04-07T05:53:51.832Z,10.30
2023-04-07T05:57:30.238Z,9.90
2023-04-07T06:01:18.058Z,10.10
2023-04-07T06:04:49.337Z,9.50
2023-04-07T06:08:19.366Z,13.90
2023-04-07T06:11:58.173Z,9.70
2023-04-07T06:15:30.963Z,10.00
2023-04-07T06:23:03.052Z,7.60
2023-04-07T06:34:06.267Z,10.30
2023-04-07T06:37:38.218Z,8.60
2023-04-07T06:41:14.169Z,10.50
2023-04-07T06:44:28.750Z,8.80
2023-04-07T06:48:01.987Z,10.40
2023-04-07T06:51:17.350Z,10.10
2023-04-07T06:54:46.669Z,10.70
2023-04-07T06:58:20.571Z,8.40
2023-04-07T07:01:56.158Z,10.60
2023-04-07T07:05:29.245Z,9.00
2023-04-07T07:09:03.687Z,10.20
2023-04-07T07:12:39.121Z,9.70
2023-04-07T07:16:09.636Z,9.70
2023-04-07T07:19:55.686Z,9.90
2023-04-07T07:23:26.181Z,10.40
2023-04-07T07:26:56.253Z,10.10
2023-04-07T07:30:30.498Z,11.20
2023-04-07T07:37:19.719Z,10.80
2023-04-07T07:40:49.315Z,11.10
2023-04-07T07:44:22.467Z,10.40
2023-04-07T07:47:59.860Z,8.10
2023-04-07T07:51:32.619Z,9.80
2023-04-07T07:54:23.897Z,8.90
2023-04-07T07:57:40.476Z,9.70
2023-04-07T08:04:56.433Z,9.80
2023-04-07T08:08:26.547Z,9.60
2023-04-07T08:11:56.607Z,9.10
2023-04-07T08:15:27.728Z,9.40
2023-04-07T08:19:02.560Z,10.40
2023-04-07T08:22:35.948Z,9.00
2023-04-07T08:26:07.058Z,9.40
2023-04-07T08:29:32.368Z,10.70
2023-04-07T08:33:02.207Z,8.90
2023-04-07T08:36:31.380Z,7.80
2023-04-07T08:40:00.892Z,9.10
2023-04-07T08:43:33.058Z,7.70
2023-04-07T08:47:02.708Z,7.40
2023-04-07T08:50:31.866Z,10.20
2023-04-07T08:54:04.399Z,9.70
2023-04-07T08:57:07.121Z,10.20
2023-04-07T09:00:40.193Z,10.50
2023-04-07T09:04:11.397Z,9.40
2023-04-07T09:07:41.139Z,9.50
2023-04-07T09:11:15.915Z,8.60
2023-04-07T09:14:45.543Z,9.70
2023-04-07T09:18:20.946Z,9.30
2023-04-07T09:21:56.797Z,9.50
2023-04-07T09:25:25.892Z,8.80
2023-04-07T09:28:56.067Z,8.90
2023-04-07T09:32:26.305Z,10.30
2023-04-07T09:35:37.435Z,9.30
2023-04-07T09:39:09.716Z,9.80
2023-04-07T09:42:11.777Z,8.50
2023-04-07T09:45:43.244Z,11.30
2023-04-07T09:49:22.872Z,10.10
2023-04-07T09:53:07.406Z,10.60
2023-04-07T09:56:45.764Z,9.60
2023-04-07T10:03:44.838Z,9.80
2023-04-07T10:11:02.795Z,10.90
2023-04-07T10:14:59.798Z,11.80
2023-04-07T10:18:32.766Z,12.30
2023-04-07T10:21:46.791Z,13.10
2023-04-07T10:25:41.355Z,14.30
2023-04-07T10:28:50.794Z,14.30
2023-04-07T10:32:32.725Z,14.30
2023-04-07T10:36:06.819Z,11.80
2023-04-07T10:39:48.398Z,11.80
2023-04-07T10:43:42.316Z,10.00
2023-04-07T10:47:48.828Z,11.00
2023-04-07T10:51:26.330Z,10.10
2023-04-07T10:59:38.297Z,11.70
2023-04-07T11:07:01.821Z,10.40
2023-04-07T11:10:03.138Z,12.20
2023-04-07T11:13:10.587Z,10.90
2023-04-07T11:16:25.027Z,10.60
2023-04-07T11:19:43.787Z,9.90
2023-04-07T11:24:01.736Z,8.80
2023-04-07T11:27:17.778Z,8.50
2023-04-07T11:30:57.200Z,8.20
2023-04-07T11:34:05.701Z,7.50
2023-04-07T11:37:37.627Z,8.70
2023-04-07T11:44:04.357Z,8.50
2023-04-07T11:47:47.783Z,8.40
2023-04-07T11:51:21.707Z,8.70
2023-04-07T11:54:40.788Z,9.90
2023-04-07T11:58:13.557Z,10.60
2023-04-07T12:04:48.732Z,11.90
2023-04-07T12:08:11.658Z,11.90
2023-04-07T12:15:15.979Z,12.80
2023-04-07T12:22:08.404Z,13.50
2023-04-07T12:25:39.952Z,11.70
2023-04-07T12:29:08.419Z,14.60
2023-04-07T12:32:21.788Z,12.80
2023-04-07T12:36:03.843Z,15.90
2023-04-07T12:39:49.777Z,15.20
2023-04-07T12:43:14.779Z,14.70
2023-04-07T12:53:51.003Z,16.00
2023-04-07T12:57:14.717Z,18.10
2023-04-07T13:00:57.279Z,19.50
2023-04-07T13:04:14.501Z,20.00
2023-04-07T13:08:39.631Z,19.50
2023-04-07T13:12:05.283Z,20.60
2023-04-07T13:16:04.414Z,21.60
2023-04-07T13:36:50.519Z,26.40
2023-04-07T13:40:19.322Z,22.50
2023-04-07T13:43:52.304Z,20.90
2023-04-07T13:47:12.150Z,18.80
2023-04-07T13:50:29.711Z,21.40
2023-04-07T13:53:47.894Z,18.10
2023-04-07T13:57:15.561Z,18.60
2023-04-07T14:00:36.271Z,18.30
2023-04-07T14:07:28.399Z,17.40
2023-04-07T14:11:05.709Z,18.20
2023-04-07T14:14:44.331Z,18.80
2023-04-07T14:18:42.271Z,19.00
2023-04-07T14:22:13.777Z,16.00
2023-04-07T14:25:46.478Z,16.90
2023-04-07T14:29:01.771Z,16.60
2023-04-07T14:32:05.725Z,13.70
2023-04-07T14:35:16.230Z,15.30
2023-04-07T14:46:25.784Z,15.70
2023-04-07T14:52:32.728Z,19.40
2023-04-07T14:56:23.699Z,15.90
2023-04-07T15:00:08.148Z,18.40
2023-04-07T15:03:51.478Z,19.30
2023-04-07T15:06:56.667Z,18.10
2023-04-07T15:09:55.822Z,19.00
2023-04-07T15:21:08.815Z,19.80
2023-04-07T15:25:06.716Z,19.50
2023-04-07T15:28:44.704Z,21.20
2023-04-07T15:39:14.298Z,22.80
2023-04-07T15:45:56.938Z,20.70
2023-04-07T15:49:36.346Z,20.10
2023-04-07T15:53:11.508Z,19.60
2023-04-07T16:00:31.526Z,20.40
2023-04-07T16:04:02.002Z,22.60
2023-04-07T16:18:31.609Z,30.70
2023-04-07T16:22:13.189Z,24.60
2023-04-07T16:29:08.155Z,22.50
2023-04-07T16:32:44.568Z,22.00
2023-04-07T16:36:03.550Z,20.60
2023-04-07T16:39:13.041Z,20.90
2023-04-07T16:43:25.743Z,28.40
2023-04-07T16:47:05.466Z,25.20
2023-04-07T16:50:16.517Z,28.80
2023-04-07T16:58:07.359Z,25.60
2023-04-07T17:01:33.880Z,22.80
2023-04-07T17:05:05.537Z,22.60
2023-04-07T17:08:37.262Z,24.20
2023-04-07T17:12:07.241Z,22.10
2023-04-07T17:15:35.913Z,24.40
2023-04-07T17:19:07.408Z,24.10
2023-04-07T17:22:50.042Z,24.20
2023-04-07T17:30:14.069Z,25.40
2023-04-07T17:33:45.657Z,27.70
2023-04-07T17:37:13.985Z,26.20
2023-04-07T17:40:46.944Z,24.10
2023-04-07T17:48:20.291Z,24.40
2023-04-07T17:51:49.490Z,18.00
2023-04-07T18:06:43.020Z,23.00
2023-04-07T18:10:33.550Z,21.00
2023-04-07T18:14:10.868Z,24.20
2023-04-07T18:47:30.430Z,28.80
2023-04-07T18:59:23.848Z,27.70
2023-04-07T19:02:56.026Z,28.10
2023-04-07T19:06:32.083Z,24.90
2023-04-07T19:13:11.703Z,27.20
2023-04-07T19:16:44.532Z,27.60
2023-04-07T19:20:15.124Z,27.80
2023-04-07T19:23:48.368Z,28.80
2023-04-07T19:27:34.033Z,29.80
2023-04-07T19:31:21.368Z,30.70
2023-04-07T19:34:28.478Z,27.80
2023-04-07T19:38:33.228Z,26.80
2023-04-07T19:58:16.235Z,39.60
2023-04-07T20:02:00.595Z,31.80
2023-04-07T20:04:53.482Z,30.10
2023-04-07T20:08:37.529Z,33.40
2023-04-07T20:12:10.027Z,30.80
2023-04-07T20:15:48.304Z,29.80
2023-04-07T20:18:32.485Z,40.40
2023-04-07T20:22:05.046Z,31.50
2023-04-07T20:25:47.210Z,34.00
2023-04-07T20:28:58.486Z,35.30
